createdAt,value
2018-07-11T00:00:12.477Z,13.33
2018-07-11T00:02:42.229Z,13.29
2018-07-11T00:05:12.055Z,13.35
2018-07-11T00:07:41.908Z,13.45
2018-07-11T00:10:11.486Z,13.41
2018-07-11T00:12:41.224Z,13.39
2018-07-11T00:15:10.800Z,13.42
2018-07-11T00:17:40.442Z,13.40
2018-07-11T00:20:10.071Z,13.37
2018-07-11T00:22:39.707Z,13.40
2018-07-11T00:25:09.316Z,13.41
2018-07-11T00:27:39.234Z,13.52
2018-07-11T00:30:08.958Z,13.51
2018-07-11T00:32:38.638Z,13.44
2018-07-11T00:35:08.303Z,13.52
2018-07-11T00:37:38.084Z,13.60
2018-07-11T00:40:07.885Z,13.68
2018-07-11T00:42:37.610Z,13.51
2018-07-11T00:45:08.125Z,13.54
2018-07-11T00:47:38.008Z,13.59
2018-07-11T00:50:07.684Z,13.54
2018-07-11T00:52:37.597Z,13.52
2018-07-11T00:55:07.284Z,13.51
2018-07-11T00:57:38.417Z,13.58
2018-07-11T01:00:08.227Z,13.64
2018-07-11T01:02:38.099Z,13.70
2018-07-11T01:05:07.820Z,13.75
2018-07-11T01:07:37.751Z,13.68
2018-07-11T01:10:07.503Z,13.63
2018-07-11T01:12:40.112Z,13.60
2018-07-11T01:15:09.944Z,13.61
2018-07-11T01:18:47.854Z,13.55
2018-07-11T01:21:17.764Z,13.47
2018-07-11T01:23:47.408Z,13.45
2018-07-11T01:26:17.485Z,13.50
2018-07-11T01:28:47.166Z,13.35
2018-07-11T01:31:16.769Z,13.29
2018-07-11T01:33:46.405Z,13.29
2018-07-11T01:36:16.222Z,13.41
2018-07-11T01:38:46.253Z,13.23
2018-07-11T01:41:16.000Z,13.22
2018-07-11T01:43:46.278Z,13.19
2018-07-11T01:46:16.340Z,13.14
2018-07-11T01:48:46.456Z,13.06
2018-07-11T01:51:16.125Z,13.03
2018-07-11T01:53:46.021Z,13.06
2018-07-11T01:56:15.734Z,12.99
2018-07-11T01:58:47.365Z,12.94
2018-07-11T02:01:17.386Z,12.95
2018-07-11T02:03:47.107Z,12.88
2018-07-11T02:06:16.829Z,12.85
2018-07-11T02:08:46.594Z,12.80
2018-07-11T02:11:16.174Z,12.75
2018-07-11T02:13:45.878Z,12.75
2018-07-11T02:16:15.529Z,12.84
2018-07-11T02:18:45.173Z,12.77
2018-07-11T02:21:14.889Z,12.70
2018-07-11T02:23:44.656Z,12.64
2018-07-11T02:26:14.319Z,12.76
2018-07-11T02:28:44.100Z,12.73
2018-07-11T02:31:13.863Z,12.61
2018-07-11T02:33:43.832Z,12.58
2018-07-11T02:36:13.537Z,12.57
2018-07-11T02:38:43.244Z,12.66
2018-07-11T02:41:13.006Z,12.67
2018-07-11T02:43:42.722Z,12.56
2018-07-11T02:46:12.449Z,12.50
2018-07-11T02:48:42.227Z,12.49
2018-07-11T02:51:12.017Z,12.46
2018-07-11T02:53:41.647Z,12.49
2018-07-11T02:56:11.358Z,12.53
2018-07-11T02:58:40.986Z,12.51
2018-07-11T03:01:11.548Z,12.49
2018-07-11T03:03:41.223Z,12.50
2018-07-11T03:06:10.912Z,12.47
2018-07-11T03:08:40.666Z,12.47
2018-07-11T03:11:10.406Z,12.48
2018-07-11T03:13:40.042Z,12.47
2018-07-11T03:16:09.691Z,12.39
2018-07-11T03:18:39.312Z,12.46
2018-07-11T03:21:08.961Z,12.42
2018-07-11T03:23:38.629Z,12.50
2018-07-11T03:26:08.249Z,12.49
2018-07-11T03:28:37.980Z,12.49
2018-07-11T03:31:07.563Z,12.44
2018-07-11T03:33:37.200Z,12.39
2018-07-11T03:36:06.940Z,12.41
2018-07-11T03:38:36.610Z,12.50
2018-07-11T03:41:06.300Z,12.48
2018-07-11T03:43:35.930Z,12.50
2018-07-11T03:46:05.746Z,12.51
2018-07-11T03:48:35.481Z,12.56
2018-07-11T03:51:05.118Z,12.67
2018-07-11T03:53:34.717Z,12.64
2018-07-11T03:56:04.882Z,12.55
2018-07-11T03:58:35.256Z,12.55
2018-07-11T04:01:04.930Z,12.56
2018-07-11T04:03:34.589Z,12.64
2018-07-11T04:06:05.665Z,12.59
2018-07-11T04:08:35.655Z,12.63
2018-07-11T04:11:05.339Z,12.70
2018-07-11T04:13:34.980Z,12.76
2018-07-11T04:16:04.702Z,12.84
2018-07-11T04:18:34.318Z,12.86
2018-07-11T04:21:04.278Z,12.93
2018-07-11T04:23:34.023Z,12.93
2018-07-11T04:26:03.646Z,12.96
2018-07-11T04:28:33.501Z,12.99
2018-07-11T04:31:03.313Z,12.95
2018-07-11T04:33:33.320Z,13.01
2018-07-11T04:36:03.099Z,13.03
2018-07-11T04:38:33.080Z,13.12
2018-07-11T04:41:02.934Z,13.12
2018-07-11T04:43:32.670Z,13.24
2018-07-11T04:46:02.384Z,13.17
2018-07-11T04:48:32.336Z,13.26
2018-07-11T04:51:02.136Z,13.05
2018-07-11T04:53:31.924Z,13.12
2018-07-11T04:56:04.269Z,13.12
2018-07-11T04:58:34.353Z,13.19
2018-07-11T05:01:03.972Z,13.22
2018-07-11T05:03:33.631Z,13.23
2018-07-11T05:06:03.234Z,13.10
2018-07-11T05:08:32.795Z,13.20
2018-07-11T05:11:02.543Z,13.21
2018-07-11T05:13:32.074Z,13.38
2018-07-11T05:16:01.735Z,13.43
2018-07-11T05:18:31.671Z,13.56
2018-07-11T05:21:01.569Z,13.45
2018-07-11T05:23:31.209Z,13.52
2018-07-11T05:26:00.856Z,13.41
2018-07-11T05:28:30.506Z,13.40
2018-07-11T05:31:00.154Z,13.49
2018-07-11T05:33:29.761Z,13.56
2018-07-11T05:35:59.369Z,13.62
2018-07-11T05:38:29.057Z,13.20
2018-07-11T05:40:58.735Z,13.32
2018-07-11T05:43:28.655Z,13.32
2018-07-11T05:45:58.328Z,13.40
2018-07-11T05:48:27.896Z,13.32
2018-07-11T05:50:57.622Z,13.23
2018-07-11T05:53:27.536Z,13.58
2018-07-11T05:55:57.104Z,13.42
2018-07-11T05:58:26.856Z,13.68
2018-07-11T06:00:56.493Z,13.44
2018-07-11T06:03:26.079Z,13.70
2018-07-11T06:05:55.677Z,13.60
2018-07-11T06:08:25.418Z,13.70
2018-07-11T06:10:55.156Z,14.03
2018-07-11T06:13:24.915Z,13.76
2018-07-11T06:15:54.504Z,13.67
2018-07-11T06:18:26.164Z,13.65
2018-07-11T06:20:56.031Z,13.64
2018-07-11T06:23:25.694Z,13.36
2018-07-11T06:25:56.362Z,13.27
2018-07-11T06:28:26.081Z,13.39
2018-07-11T06:30:55.744Z,13.69
2018-07-11T06:33:25.396Z,13.56
2018-07-11T06:35:55.056Z,13.71
2018-07-11T06:38:24.669Z,13.75
2018-07-11T06:40:54.524Z,13.87
2018-07-11T06:43:24.144Z,14.00
2018-07-11T06:45:54.454Z,13.98
2018-07-11T06:48:24.548Z,14.13
2018-07-11T06:50:54.339Z,13.86
2018-07-11T06:53:24.287Z,14.13
2018-07-11T06:55:53.999Z,14.23
2018-07-11T06:58:23.644Z,14.18
2018-07-11T07:00:53.285Z,14.08
2018-07-11T07:03:23.002Z,14.21
2018-07-11T07:05:52.813Z,14.03
2018-07-11T07:08:22.515Z,14.06
2018-07-11T07:10:52.116Z,14.17
2018-07-11T07:13:21.949Z,14.10
2018-07-11T07:15:51.679Z,14.34
2018-07-11T07:18:21.464Z,14.27
2018-07-11T07:20:51.168Z,14.42
2018-07-11T07:23:20.822Z,14.47
2018-07-11T07:25:53.491Z,14.39
2018-07-11T07:28:23.179Z,14.49
2018-07-11T07:30:52.900Z,14.33
2018-07-11T07:33:23.093Z,14.49
2018-07-11T07:35:52.829Z,14.50
2018-07-11T07:38:22.648Z,14.56
2018-07-11T07:40:53.164Z,14.76
2018-07-11T07:43:22.993Z,14.73
2018-07-11T07:45:52.709Z,14.78
2018-07-11T07:48:22.483Z,14.69
2018-07-11T07:50:52.485Z,14.94
2018-07-11T07:53:22.258Z,15.05
2018-07-11T07:55:52.008Z,14.97
2018-07-11T07:58:21.874Z,15.08
2018-07-11T08:00:52.031Z,15.08
2018-07-11T08:03:21.941Z,15.20
2018-07-11T08:05:56.162Z,15.04
2018-07-11T08:08:25.991Z,15.11
2018-07-11T08:10:55.842Z,15.12
2018-07-11T08:13:25.728Z,15.07
2018-07-11T08:15:55.571Z,15.36
2018-07-11T08:18:25.386Z,15.26
2018-07-11T08:20:55.106Z,15.25
2018-07-11T08:23:46.616Z,15.18
2018-07-11T08:26:33.701Z,15.39
2018-07-11T08:31:56.912Z,15.11
2018-07-11T08:34:47.361Z,15.31
2018-07-11T08:38:33.167Z,15.68
2018-07-11T08:41:21.252Z,15.51
2018-07-11T08:44:21.273Z,15.71
2018-07-11T08:47:04.684Z,15.47
2018-07-11T08:50:50.163Z,15.78
2018-07-11T08:55:46.444Z,15.73
2018-07-11T09:01:05.536Z,16.15
2018-07-11T09:13:46.358Z,16.35
2018-07-11T09:17:32.297Z,15.13
2018-07-11T09:21:54.194Z,15.16
2018-07-11T09:24:40.549Z,15.10
2018-07-11T09:27:10.833Z,15.21
2018-07-11T09:29:41.393Z,15.48
2018-07-11T09:32:11.915Z,15.57
2018-07-11T09:34:42.049Z,15.25
2018-07-11T09:37:11.945Z,15.28
2018-07-11T09:39:42.278Z,15.45
2018-07-11T09:42:12.208Z,15.58
2018-07-11T09:44:41.928Z,15.67
2018-07-11T09:47:16.675Z,15.57
2018-07-11T09:49:46.515Z,15.47
2018-07-11T09:52:16.982Z,15.66
2018-07-11T09:54:46.724Z,15.40
2018-07-11T09:57:17.844Z,15.11
2018-07-11T09:59:47.627Z,15.32
2018-07-11T10:02:17.817Z,15.59
2018-07-11T10:04:47.652Z,15.24
2018-07-11T10:07:17.786Z,15.11
2018-07-11T10:09:47.493Z,15.15
2018-07-11T10:12:17.480Z,15.35
2018-07-11T10:14:47.121Z,15.23
2018-07-11T10:17:16.835Z,15.12
2018-07-11T10:19:46.502Z,15.08
2018-07-11T10:22:16.194Z,15.09
2018-07-11T10:24:45.894Z,15.38
2018-07-11T10:27:15.589Z,15.49
2018-07-11T10:29:45.491Z,15.65
2018-07-11T10:32:15.172Z,15.70
2018-07-11T10:34:44.955Z,15.48
2018-07-11T10:37:14.728Z,15.73
2018-07-11T10:39:44.541Z,15.47
2018-07-11T10:42:14.188Z,15.85
2018-07-11T10:44:43.979Z,15.70
2018-07-11T10:47:14.223Z,15.74
2018-07-11T10:49:44.776Z,15.95
2018-07-11T10:52:14.520Z,15.75
2018-07-11T10:54:44.291Z,15.48
2018-07-11T10:57:13.985Z,15.64
2018-07-11T10:59:43.743Z,15.44
2018-07-11T11:02:21.754Z,15.43
2018-07-11T11:04:51.751Z,15.52
2018-07-11T11:07:22.017Z,15.53
2018-07-11T11:09:51.792Z,15.35
2018-07-11T11:12:22.095Z,15.27
2018-07-11T11:14:52.087Z,15.23
2018-07-11T11:17:24.186Z,15.23
2018-07-11T11:19:53.945Z,15.20
2018-07-11T11:22:24.164Z,15.18
2018-07-11T11:24:53.915Z,15.24
2018-07-11T11:27:24.148Z,15.28
2018-07-11T11:29:53.935Z,15.29
2018-07-11T11:32:23.953Z,15.26
2018-07-11T11:34:53.680Z,15.30
2018-07-11T11:37:23.558Z,15.27
2018-07-11T11:39:53.191Z,15.22
2018-07-11T11:42:23.427Z,15.24
2018-07-11T11:44:52.862Z,15.44
2018-07-11T11:47:27.617Z,15.25
2018-07-11T11:49:58.295Z,15.38
2018-07-11T11:52:28.360Z,15.50
2018-07-11T11:54:58.153Z,15.47
2018-07-11T11:57:28.224Z,15.50
2018-07-11T11:59:57.955Z,15.68
2018-07-11T12:02:27.888Z,15.62
2018-07-11T12:04:57.764Z,15.58
2018-07-11T12:07:27.897Z,15.66
2018-07-11T12:09:57.536Z,15.78
2018-07-11T12:12:27.345Z,15.73
2018-07-11T12:14:57.062Z,15.55
2018-07-11T12:17:26.911Z,15.69
2018-07-11T12:19:56.598Z,15.62
2018-07-11T12:22:27.549Z,15.51
2018-07-11T12:24:57.236Z,15.31
2018-07-11T12:27:30.116Z,15.53
2018-07-11T12:29:59.892Z,15.63
2018-07-11T12:32:29.902Z,15.65
2018-07-11T12:34:59.557Z,15.64
2018-07-11T12:37:29.489Z,16.02
2018-07-11T12:40:00.068Z,15.94
2018-07-11T12:42:30.213Z,15.87
2018-07-11T12:44:59.835Z,15.82
2018-07-11T12:47:35.004Z,15.84
2018-07-11T12:50:04.907Z,16.13
2018-07-11T12:52:34.788Z,16.17
2018-07-11T12:55:04.516Z,16.67
2018-07-11T12:57:34.169Z,16.69
2018-07-11T13:00:03.925Z,16.87
2018-07-11T13:02:34.763Z,16.99
2018-07-11T13:05:04.626Z,16.82
2018-07-11T13:07:34.962Z,16.90
2018-07-11T13:10:04.746Z,17.19
2018-07-11T13:12:34.902Z,17.49
2018-07-11T13:15:04.609Z,17.86
2018-07-11T13:17:34.783Z,18.26
2018-07-11T13:20:04.536Z,17.62
2018-07-11T13:22:34.670Z,18.28
2018-07-11T13:25:04.304Z,18.42
2018-07-11T13:27:34.552Z,17.72
2018-07-11T13:30:04.352Z,17.76
2018-07-11T13:32:34.979Z,17.86
2018-07-11T13:35:04.798Z,17.74
2018-07-11T13:37:35.047Z,17.53
2018-07-11T13:40:05.017Z,17.58
2018-07-11T13:42:34.944Z,17.97
2018-07-11T13:45:04.725Z,17.85
2018-07-11T13:47:34.828Z,17.41
2018-07-11T13:50:04.485Z,17.87
2018-07-11T13:52:34.486Z,17.49
2018-07-11T13:55:04.287Z,17.92
2018-07-11T13:57:33.983Z,17.40
2018-07-11T14:00:04.101Z,17.45
2018-07-11T14:02:33.810Z,17.87
2018-07-11T14:05:03.656Z,17.78
2018-07-11T14:07:33.475Z,17.98
2018-07-11T14:10:03.153Z,18.12
2018-07-11T14:12:32.991Z,18.33
2018-07-11T14:15:02.846Z,17.96
2018-07-11T14:17:32.725Z,17.91
2018-07-11T14:20:02.606Z,17.76
2018-07-11T14:22:31.887Z,17.49
2018-07-11T14:25:02.534Z,17.37
2018-07-11T14:27:39.243Z,17.65
2018-07-11T14:30:09.423Z,17.52
2018-07-11T14:32:49.997Z,17.92
2018-07-11T14:35:20.349Z,17.78
2018-07-11T14:37:50.406Z,17.75
2018-07-11T14:40:20.564Z,17.69
2018-07-11T14:42:50.268Z,17.78
2018-07-11T14:45:20.443Z,17.88
2018-07-11T14:47:55.450Z,18.14
2018-07-11T14:50:25.759Z,18.15
2018-07-11T14:52:55.459Z,17.94
2018-07-11T14:55:25.206Z,18.30
2018-07-11T14:57:55.197Z,18.20
2018-07-11T15:00:25.105Z,18.25
2018-07-11T15:02:54.751Z,18.75
2018-07-11T15:05:24.518Z,18.45
2018-07-11T15:07:54.229Z,18.84
2018-07-11T15:10:25.027Z,18.85
2018-07-11T15:12:54.754Z,18.93
2018-07-11T15:15:24.711Z,18.77
2018-07-11T15:17:54.380Z,19.08
2018-07-11T15:20:23.730Z,19.13
2018-07-11T15:22:54.258Z,19.03
2018-07-11T15:25:26.943Z,19.13
2018-07-11T15:27:56.672Z,19.34
2018-07-11T15:30:26.350Z,19.41
2018-07-11T15:32:56.081Z,18.91
2018-07-11T15:35:25.645Z,19.21
2018-07-11T15:37:55.502Z,19.19
2018-07-11T15:40:25.344Z,18.98
2018-07-11T15:42:55.815Z,18.93
2018-07-11T15:45:25.610Z,18.88
2018-07-11T15:47:55.290Z,19.02
2018-07-11T15:50:25.372Z,19.07
2018-07-11T15:52:55.082Z,19.23
2018-07-11T15:55:24.784Z,19.15
2018-07-11T15:57:55.967Z,19.37
2018-07-11T16:00:38.668Z,19.05
2018-07-11T16:03:08.486Z,19.10
2018-07-11T16:05:44.211Z,19.06
2018-07-11T16:08:20.308Z,19.07
2018-07-11T16:10:54.722Z,19.34
2018-07-11T16:13:24.471Z,19.16
2018-07-11T16:15:54.423Z,19.04
2018-07-11T16:18:24.549Z,19.20
2018-07-11T16:20:53.990Z,19.16
2018-07-11T16:23:24.261Z,19.13
2018-07-11T16:25:54.424Z,19.15
2018-07-11T16:28:24.300Z,19.15
2018-07-11T16:30:54.118Z,18.79
2018-07-11T16:33:24.048Z,18.73
2018-07-11T16:35:53.865Z,18.77
2018-07-11T16:38:23.736Z,18.70
2018-07-11T16:40:54.822Z,18.73
2018-07-11T16:43:24.628Z,18.67
2018-07-11T16:45:54.518Z,18.75
2018-07-11T16:48:24.345Z,18.47
2018-07-11T16:50:54.062Z,18.39
2018-07-11T16:53:24.826Z,18.49
2018-07-11T16:55:54.806Z,18.58
2018-07-11T16:58:31.151Z,18.51
2018-07-11T17:01:01.921Z,18.48
2018-07-11T17:03:34.911Z,18.37
2018-07-11T17:06:08.766Z,18.34
2018-07-11T17:08:48.155Z,18.38
2018-07-11T17:11:25.589Z,18.41
2018-07-11T17:14:02.277Z,18.41
2018-07-11T17:16:59.911Z,18.40
2018-07-11T17:19:44.899Z,18.40
2018-07-11T17:22:15.102Z,18.42
2018-07-11T17:24:48.499Z,18.45
2018-07-11T17:27:22.271Z,18.60
2018-07-11T17:29:53.998Z,18.44
2018-07-11T17:32:23.831Z,18.55
2018-07-11T17:34:54.239Z,18.57
2018-07-11T17:37:32.783Z,18.62
2018-07-11T17:40:10.804Z,18.40
2018-07-11T17:42:44.446Z,18.57
2018-07-11T17:45:17.033Z,18.59
2018-07-11T17:50:05.620Z,18.46
2018-07-11T17:53:04.735Z,18.37
2018-07-11T17:55:35.965Z,18.12
2018-07-11T17:58:08.518Z,18.00
2018-07-11T18:00:50.956Z,17.51
2018-07-11T18:03:43.518Z,17.33
2018-07-11T18:07:26.038Z,17.29
2018-07-11T18:10:06.977Z,17.23
2018-07-11T18:12:50.783Z,17.15
2018-07-11T18:15:46.095Z,17.07
2018-07-11T18:18:31.668Z,17.10
2018-07-11T18:23:39.084Z,17.12
2018-07-11T18:26:20.148Z,16.98
2018-07-11T18:29:08.224Z,16.89
2018-07-11T18:31:51.883Z,16.82
2018-07-11T18:36:43.968Z,16.77
2018-07-11T18:39:26.254Z,16.71
2018-07-11T18:42:40.610Z,16.76
2018-07-11T18:47:33.598Z,16.73
2018-07-11T18:50:20.250Z,16.66
2018-07-11T18:53:01.979Z,16.64
2018-07-11T18:55:44.338Z,16.54
2018-07-11T18:58:53.980Z,16.21
2018-07-11T19:01:37.205Z,16.06
2018-07-11T19:04:22.043Z,16.10
2018-07-11T19:07:14.750Z,16.15
2018-07-11T19:09:53.232Z,16.20
2018-07-11T19:12:31.419Z,16.22
2018-07-11T19:15:16.780Z,16.40
2018-07-11T19:18:20.073Z,16.48
2018-07-11T19:21:10.379Z,16.48
2018-07-11T19:23:54.496Z,16.41
2018-07-11T19:26:42.212Z,16.39
2018-07-11T19:29:57.161Z,16.44
2018-07-11T19:32:46.272Z,16.48
2018-07-11T19:36:31.721Z,16.45
2018-07-11T19:39:10.119Z,16.39
2018-07-11T19:41:51.600Z,16.45
2018-07-11T19:44:41.450Z,16.43
2018-07-11T19:47:31.004Z,16.39
2018-07-11T19:51:31.632Z,16.44
2018-07-11T19:54:11.852Z,16.36
2018-07-11T19:56:46.488Z,16.44
2018-07-11T19:59:16.690Z,16.39
2018-07-11T20:01:48.029Z,16.44
2018-07-11T20:04:18.011Z,16.43
2018-07-11T20:06:47.784Z,16.39
2018-07-11T20:09:24.201Z,16.36
2018-07-11T20:11:53.963Z,16.42
2018-07-11T20:14:23.733Z,16.39
2018-07-11T20:16:53.718Z,16.39
2018-07-11T20:19:23.496Z,16.43
2018-07-11T20:21:53.706Z,16.43
2018-07-11T20:24:30.169Z,16.40
2018-07-11T20:26:59.831Z,16.36
2018-07-11T20:29:30.024Z,16.39
2018-07-11T20:31:59.804Z,16.34
2018-07-11T20:34:29.505Z,16.34
2018-07-11T20:36:59.130Z,16.35
2018-07-11T20:39:29.088Z,16.37
2018-07-11T20:41:59.212Z,16.37
2018-07-11T20:44:29.097Z,16.40
2018-07-11T20:46:58.897Z,16.39
2018-07-11T20:49:33.600Z,16.36
2018-07-11T20:52:04.861Z,16.32
2018-07-11T20:54:34.787Z,16.36
2018-07-11T20:57:04.541Z,16.39
2018-07-11T20:59:51.096Z,16.30
2018-07-11T21:02:37.537Z,16.29
2018-07-11T21:07:43.020Z,16.24
2018-07-11T21:10:46.935Z,16.14
2018-07-11T21:15:54.830Z,16.04
2018-07-11T21:19:10.114Z,15.96
2018-07-11T21:21:42.189Z,15.91
2018-07-11T21:24:12.723Z,15.94
2018-07-11T21:26:42.406Z,15.78
2018-07-11T21:29:12.166Z,15.71
2018-07-11T21:31:42.076Z,15.79
2018-07-11T21:34:11.902Z,15.85
2018-07-11T21:36:41.740Z,15.79
2018-07-11T21:39:11.575Z,15.78
2018-07-11T21:41:41.248Z,15.81
2018-07-11T21:44:10.973Z,15.87
2018-07-11T21:46:40.703Z,15.86
2018-07-11T21:49:21.845Z,16.03
2018-07-11T21:51:52.465Z,16.06
2018-07-11T21:54:22.473Z,16.09
2018-07-11T21:56:52.771Z,16.08
2018-07-11T21:59:22.734Z,16.03
2018-07-11T22:01:53.069Z,16.07
2018-07-11T22:04:23.387Z,15.99
2018-07-11T22:06:53.167Z,15.95
2018-07-11T22:09:22.977Z,15.93
2018-07-11T22:11:52.746Z,15.92
2018-07-11T22:14:22.453Z,15.86
2018-07-11T22:16:52.216Z,15.91
2018-07-11T22:19:22.041Z,15.95
2018-07-11T22:21:50.001Z,15.94
2018-07-11T22:24:17.833Z,15.95
2018-07-11T22:26:45.700Z,15.90
2018-07-11T22:29:13.575Z,15.81
2018-07-11T22:31:41.426Z,15.90
2018-07-11T22:34:09.279Z,15.88
2018-07-11T22:36:37.152Z,15.95
2018-07-11T22:39:05.007Z,15.95
2018-07-11T22:41:32.847Z,15.98
2018-07-11T22:44:00.699Z,15.99
2018-07-11T22:46:29.631Z,15.98
2018-07-11T22:48:57.540Z,16.01
2018-07-11T22:51:25.389Z,16.06
2018-07-11T22:53:53.208Z,16.01
2018-07-11T22:56:21.073Z,15.99
2018-07-11T22:58:48.927Z,16.00
2018-07-11T23:01:16.813Z,16.05
2018-07-11T23:03:44.652Z,16.03
2018-07-11T23:06:12.480Z,16.05
2018-07-11T23:08:40.283Z,16.14
2018-07-11T23:11:08.089Z,16.06
2018-07-11T23:13:35.967Z,16.03
2018-07-11T23:16:03.812Z,16.09
2018-07-11T23:18:31.797Z,16.11
2018-07-11T23:20:59.635Z,16.10
2018-07-11T23:23:27.467Z,16.12
2018-07-11T23:25:55.284Z,16.10
2018-07-11T23:28:23.196Z,16.09
2018-07-11T23:30:51.059Z,16.07
2018-07-11T23:33:18.910Z,16.08
2018-07-11T23:35:46.802Z,16.10
2018-07-11T23:38:14.626Z,16.12
2018-07-11T23:40:42.508Z,16.15
2018-07-11T23:43:10.371Z,16.21
2018-07-11T23:45:38.197Z,16.10
2018-07-11T23:48:06.060Z,16.13
2018-07-11T23:50:33.989Z,16.09
2018-07-11T23:53:01.798Z,16.02
2018-07-11T23:55:29.650Z,16.06
2018-07-11T23:57:57.536Z,16.03
